Time;durP1;ratioP1;P1;durP2;ratioP2;P2;SDS_P1;SDS_P2;PMS_P1;PMS_P2;Temp;Humidity;BMP_temperature;BMP_pressure;BME280_temperature;BME280_humidity;BME280_pressure;Samples;Min_cycle;Max_cycle;Signal;HPM_P1;HPM_P2
2021/12/03 00:01:17;;;;;;;0.10;0.10;;;2.20;99.90;;;;;;5049514;28;20025;-77
2021/12/03 00:03:43;;;;;;;0.10;0.10;;;2.20;99.90;;;;;;5048413;28;20029;-79
2021/12/03 00:06:09;;;;;;;0.10;0.10;;;2.10;99.90;;;;;;5049568;28;20025;-78
2021/12/03 00:08:34;;;;;;;0.10;0.10;;;2.10;99.90;;;;;;5053352;28;20021;-79
2021/12/03 00:11:02;;;;;;;0.10;0.10;;;2.00;99.90;;;;;;5051058;28;20035;-78
2021/12/03 00:13:31;;;;;;;0.10;0.10;;;1.90;99.90;;;;;;5051889;28;20082;-78
2021/12/03 00:15:57;;;;;;;0.10;0.10;;;1.90;99.90;;;;;;5053249;28;20029;-79
2021/12/03 00:18:23;;;;;;;0.10;0.10;;;1.90;99.90;;;;;;5052768;28;20032;-79
2021/12/03 00:20:49;;;;;;;0.10;0.10;;;1.90;99.90;;;;;;5049572;28;20025;-77
2021/12/03 00:23:16;;;;;;;0.10;0.10;;;1.80;99.90;;;;;;5052277;28;20040;-79
2021/12/03 00:25:42;;;;;;;0.10;0.10;;;1.80;99.90;;;;;;5052072;28;20036;-79
2021/12/03 00:28:07;;;;;;;0.10;0.10;;;1.80;99.90;;;;;;5050067;28;20398;-78
2021/12/03 00:30:34;;;;;;;0.10;0.10;;;1.90;99.90;;;;;;5032826;28;20065;-78
2021/12/03 00:33:00;;;;;;;0.10;0.10;;;1.70;99.90;;;;;;5032908;28;20094;-78
2021/12/03 00:35:26;;;;;;;0.10;0.10;;;2.60;99.90;;;;;;5032215;28;20044;-78
2021/12/03 00:37:52;;;;;;;0.10;0.10;;;1.90;99.90;;;;;;5031645;28;20030;-78
2021/12/03 00:40:22;;;;;;;0.10;0.10;;;1.80;99.90;;;;;;5045332;28;20035;-78
2021/12/03 00:42:48;;;;;;;0.57;0.57;;;1.80;99.90;;;;;;5052707;28;20040;-79
2021/12/03 00:45:14;;;;;;;0.10;0.10;;;1.70;99.90;;;;;;5052082;28;20138;-78
2021/12/03 00:47:41;;;;;;;0.10;0.10;;;1.70;99.90;;;;;;5038311;28;20029;-79
2021/12/03 00:50:09;;;;;;;0.10;0.10;;;1.70;99.90;;;;;;5032778;28;20017;-79
2021/12/03 00:52:36;;;;;;;0.10;0.10;;;1.70;99.90;;;;;;5032283;28;20048;-79
2021/12/03 00:55:03;;;;;;;0.10;0.10;;;1.70;99.90;;;;;;5043081;28;20041;-78
2021/12/03 00:57:29;;;;;;;0.10;0.10;;;1.80;99.90;;;;;;5038131;28;20479;-79
2021/12/03 00:59:54;;;;;;;0.10;0.10;;;1.70;99.90;;;;;;5040438;28;20033;-78
2021/12/03 01:02:20;;;;;;;0.10;0.10;;;1.60;99.90;;;;;;5032528;28;20075;-78
2021/12/03 01:04:46;;;;;;;0.10;0.10;;;1.60;99.90;;;;;;5032161;28;20423;-78
2021/12/03 01:07:13;;;;;;;0.10;0.10;;;1.70;99.90;;;;;;5038580;28;20032;-78
2021/12/03 01:09:39;;;;;;;0.10;0.10;;;1.70;99.90;;;;;;5051566;28;20036;-78
2021/12/03 01:12:05;;;;;;;0.10;0.10;;;1.70;99.90;;;;;;5043154;28;20049;-78
2021/12/03 01:14:31;;;;;;;0.10;0.10;;;1.70;99.90;;;;;;5058666;28;20025;-81
2021/12/03 01:16:57;;;;;;;0.10;0.10;;;1.80;99.90;;;;;;5045892;28;20418;-79
2021/12/03 01:19:22;;;;;;;0.10;0.10;;;1.80;99.90;;;;;;5051732;28;20036;-78
2021/12/03 01:21:48;;;;;;;0.10;0.10;;;1.90;99.90;;;;;;5051863;28;20017;-78
2021/12/03 01:24:14;;;;;;;0.10;0.10;;;1.90;99.90;;;;;;5049912;28;20115;-79
2021/12/03 01:26:41;;;;;;;0.10;0.10;;;1.90;99.90;;;;;;5051308;28;20104;-79
2021/12/03 01:29:07;;;;;;;0.10;0.10;;;1.90;99.90;;;;;;5051618;28;20028;-79
2021/12/03 01:31:33;;;;;;;0.10;0.10;;;1.90;99.90;;;;;;5055603;28;20028;-78
2021/12/03 01:33:59;;;;;;;0.10;0.10;;;1.90;99.90;;;;;;5050243;28;20026;-78
2021/12/03 01:36:24;;;;;;;0.10;0.10;;;1.90;99.90;;;;;;5051335;28;20041;-79
2021/12/03 01:38:50;;;;;;;0.10;0.10;;;2.60;99.90;;;;;;5051595;28;20041;-77
2021/12/03 01:41:16;;;;;;;0.10;0.10;;;1.90;99.90;;;;;;5050610;28;20028;-79
2021/12/03 01:43:44;;;;;;;0.10;0.10;;;1.80;99.90;;;;;;5046136;28;20471;-78
2021/12/03 01:46:11;;;;;;;0.10;0.10;;;1.80;99.90;;;;;;5031640;28;20026;-79
2021/12/03 01:48:38;;;;;;;0.10;0.10;;;1.80;99.90;;;;;;5031912;28;20025;-78
2021/12/03 01:51:06;;;;;;;0.10;0.10;;;1.70;99.90;;;;;;5046478;28;20051;-78
2021/12/03 01:53:35;;;;;;;0.10;0.10;;;1.70;99.90;;;;;;5050743;28;20079;-79
2021/12/03 01:56:05;;;;;;;0.10;0.10;;;1.70;99.90;;;;;;5051082;28;20113;-78
2021/12/03 01:58:31;;;;;;;0.10;0.10;;;1.70;99.90;;;;;;5042041;28;20555;-79
2021/12/03 02:01:00;;;;;;;0.10;0.10;;;1.60;99.90;;;;;;5051024;28;20097;-78
2021/12/03 02:03:29;;;;;;;0.10;0.10;;;1.60;99.90;;;;;;5050729;28;20021;-78
2021/12/03 02:05:55;;;;;;;0.10;0.10;;;1.60;99.90;;;;;;5050589;28;20554;-78
2021/12/03 02:08:22;;;;;;;0.10;0.10;;;1.50;99.90;;;;;;5037360;28;20449;-79
2021/12/03 02:10:47;;;;;;;0.10;0.10;;;1.50;99.90;;;;;;5031328;28;20033;-78
2021/12/03 02:13:14;;;;;;;0.10;0.10;;;1.50;99.90;;;;;;5031125;28;20033;-79
2021/12/03 02:15:42;;;;;;;0.10;0.10;;;1.50;99.90;;;;;;5030745;28;20052;-78
2021/12/03 02:18:08;;;;;;;0.10;0.10;;;1.50;99.90;;;;;;5048554;28;20441;-78
2021/12/03 02:20:34;;;;;;;0.10;0.10;;;1.40;99.90;;;;;;5050432;28;20048;-78
2021/12/03 02:23:02;;;;;;;0.10;0.10;;;1.40;99.90;;;;;;5050611;28;20025;-78
2021/12/03 02:25:27;;;;;;;0.10;0.10;;;1.40;99.90;;;;;;5050120;28;21839;-79
2021/12/03 02:27:57;;;;;;;0.10;0.10;;;1.40;99.90;;;;;;5031860;28;20061;-79
2021/12/03 02:30:24;;;;;;;0.00;0.00;;;1.30;99.90;;;;;;5029730;28;20109;-78
2021/12/03 02:32:52;;;;;;;0.10;0.10;;;1.40;99.90;;;;;;5030836;28;20509;-78
2021/12/03 02:35:22;;;;;;;0.10;0.10;;;1.30;99.90;;;;;;5034431;28;20086;-80
2021/12/03 02:37:48;;;;;;;0.10;0.10;;;1.30;99.90;;;;;;5050219;28;20100;-79
2021/12/03 02:40:15;;;;;;;0.10;0.10;;;1.20;99.90;;;;;;5050442;28;20423;-79
2021/12/03 02:42:41;;;;;;;0.10;0.10;;;1.20;99.90;;;;;;5050248;28;20394;-79
2021/12/03 02:45:08;;;;;;;0.10;0.10;;;1.20;99.90;;;;;;5035087;28;20033;-78
2021/12/03 02:47:34;;;;;;;0.10;0.10;;;1.20;99.90;;;;;;5030377;28;20022;-78
2021/12/03 02:50:00;;;;;;;0.10;0.10;;;1.20;99.90;;;;;;5048070;28;20036;-78
2021/12/03 02:52:26;;;;;;;0.10;0.10;;;1.20;99.90;;;;;;5038457;28;20037;-79
2021/12/03 02:54:51;;;;;;;0.10;0.10;;;1.20;99.90;;;;;;5030051;28;20029;-78
2021/12/03 02:57:18;;;;;;;0.10;0.10;;;1.20;99.90;;;;;;5029107;28;20022;-78
2021/12/03 02:59:43;;;;;;;0.10;0.10;;;1.20;99.90;;;;;;5038624;28;20025;-78
2021/12/03 03:02:09;;;;;;;0.10;0.10;;;1.10;99.90;;;;;;5048566;28;20021;-78
2021/12/03 03:04:35;;;;;;;0.10;0.10;;;1.10;99.90;;;;;;5056784;28;20445;-78
2021/12/03 03:07:01;;;;;;;0.10;0.10;;;1.10;99.90;;;;;;5055117;28;20032;-78
2021/12/03 03:09:27;;;;;;;0.60;0.60;;;1.10;99.90;;;;;;5039284;28;20057;-78
2021/12/03 03:11:53;;;;;;;0.10;0.10;;;1.10;99.90;;;;;;5030545;28;20452;-77
2021/12/03 03:14:19;;;;;;;0.10;0.10;;;1.20;99.90;;;;;;5030355;28;20104;-79
2021/12/03 03:16:46;;;;;;;0.10;0.10;;;1.20;99.90;;;;;;5032780;28;20474;-80
2021/12/03 03:19:20;;;;;;;0.10;0.10;;;1.30;99.90;;;;;;5048474;28;20083;-79
2021/12/03 03:21:46;;;;;;;0.10;0.10;;;1.40;99.90;;;;;;5053291;28;20107;-78
2021/12/03 03:24:13;;;;;;;0.10;0.10;;;1.40;99.90;;;;;;5060590;28;20021;-78
2021/12/03 03:26:42;;;;;;;0.10;0.10;;;1.50;99.90;;;;;;5048019;28;20025;-78
2021/12/03 03:29:10;;;;;;;0.10;0.10;;;1.50;99.90;;;;;;5048314;28;20049;-78
2021/12/03 03:31:38;;;;;;;0.10;0.10;;;1.50;99.90;;;;;;5049673;28;20040;-79
2021/12/03 03:34:06;;;;;;;0.10;0.10;;;1.60;99.90;;;;;;5047026;28;20022;-78
2021/12/03 03:36:33;;;;;;;0.10;0.10;;;1.60;99.90;;;;;;5029823;28;20495;-78
2021/12/03 03:38:59;;;;;;;0.10;0.10;;;1.60;99.90;;;;;;5042710;28;20029;-78
2021/12/03 03:41:25;;;;;;;0.10;0.10;;;1.60;99.90;;;;;;5050052;28;20044;-78
2021/12/03 03:43:50;;;;;;;0.10;0.10;;;1.60;99.90;;;;;;5037458;28;20495;-78
2021/12/03 03:46:17;;;;;;;0.10;0.10;;;1.60;99.90;;;;;;5044512;28;20081;-78
2021/12/03 03:48:42;;;;;;;0.10;0.10;;;1.70;99.90;;;;;;5053336;28;20100;-78
2021/12/03 03:51:08;;;;;;;0.10;0.10;;;1.70;99.90;;;;;;5051552;28;20523;-78
2021/12/03 03:53:35;;;;;;;0.10;0.10;;;1.70;99.90;;;;;;5037440;28;20030;-78
2021/12/03 03:56:00;;;;;;;1.23;1.17;;;1.80;99.90;;;;;;5040259;28;20100;-78
2021/12/03 03:58:26;;;;;;;0.10;0.10;;;1.80;99.90;;;;;;5053005;28;20104;-78
2021/12/03 04:00:52;;;;;;;0.10;0.10;;;1.80;99.90;;;;;;5047292;28;20033;-78
2021/12/03 04:03:18;;;;;;;0.10;0.10;;;1.80;99.90;;;;;;5052293;28;20487;-78
2021/12/03 04:05:43;;;;;;;0.10;0.10;;;1.80;99.90;;;;;;5052927;28;20151;-79
2021/12/03 04:08:09;;;;;;;0.10;0.10;;;1.90;99.90;;;;;;5052762;28;20108;-78
2021/12/03 04:10:35;;;;;;;0.10;0.10;;;1.90;99.90;;;;;;5047268;28;20025;-79
2021/12/03 04:13:02;;;;;;;0.10;0.10;;;1.90;99.90;;;;;;5032829;28;20108;-78
2021/12/03 04:15:27;;;;;;;0.10;0.10;;;1.90;99.90;;;;;;5032511;28;20099;-79
2021/12/03 04:17:53;;;;;;;1.33;1.27;;;1.90;99.90;;;;;;5049591;28;20589;-80
2021/12/03 04:20:20;;;;;;;0.10;0.10;;;1.90;99.90;;;;;;5046980;28;20025;-79
2021/12/03 04:22:46;;;;;;;0.10;0.10;;;2.00;99.90;;;;;;5044081;28;20059;-79
2021/12/03 04:25:15;;;;;;;0.10;0.10;;;2.00;99.90;;;;;;5052619;28;20021;-80
2021/12/03 04:27:41;;;;;;;0.20;0.20;;;1.90;99.90;;;;;;5052638;28;20051;-78
2021/12/03 04:30:10;;;;;;;0.10;0.10;;;2.00;99.90;;;;;;5040223;28;20505;-77
2021/12/03 04:32:36;;;;;;;0.10;0.10;;;2.00;99.90;;;;;;5045101;28;20559;-79
2021/12/03 04:35:03;;;;;;;0.10;0.10;;;1.90;99.90;;;;;;5052531;28;20023;-79
2021/12/03 04:37:28;;;;;;;0.10;0.10;;;1.90;99.90;;;;;;5052516;28;20102;-78
2021/12/03 04:39:54;;;;;;;0.10;0.10;;;1.90;99.90;;;;;;5036877;28;20030;-78
2021/12/03 04:42:20;;;;;;;0.10;0.10;;;1.90;99.90;;;;;;5032616;28;20510;-78
2021/12/03 04:44:46;;;;;;;0.10;0.10;;;1.90;99.90;;;;;;5032074;28;20527;-78
2021/12/03 04:47:12;;;;;;;0.10;0.10;;;1.90;99.90;;;;;;5038931;28;20029;-79
2021/12/03 04:49:38;;;;;;;0.10;0.10;;;1.90;99.90;;;;;;5032610;28;20117;-79
2021/12/03 04:52:04;;;;;;;0.13;0.13;;;1.90;99.90;;;;;;5037439;28;20048;-78
2021/12/03 04:54:29;;;;;;;0.10;0.10;;;2.00;99.90;;;;;;5050244;28;20025;-79
2021/12/03 04:56:56;;;;;;;0.10;0.10;;;2.00;99.90;;;;;;5046456;28;20037;-78
2021/12/03 04:59:22;;;;;;;0.10;0.10;;;2.00;99.90;;;;;;5051595;28;20092;-78
2021/12/03 05:01:48;;;;;;;0.10;0.10;;;2.00;99.90;;;;;;5051855;28;20478;-78
2021/12/03 05:04:14;;;;;;;0.10;0.10;;;2.00;99.90;;;;;;5041038;28;20026;-77
2021/12/03 05:09:28;;;;;;;0.10;0.10;;;2.00;99.90;;;;;;5031158;28;20034;-79
2021/12/03 05:11:53;;;;;;;0.10;0.10;;;2.00;99.90;;;;;;5031868;28;20671;-79
2021/12/03 05:14:19;;;;;;;0.10;0.10;;;1.90;99.90;;;;;;5031996;28;20022;-79
2021/12/03 05:16:46;;;;;;;0.10;0.10;;;1.90;99.90;;;;;;5051923;28;20449;-79
2021/12/03 05:19:12;;;;;;;0.10;0.10;;;2.00;99.90;;;;;;5042890;28;20026;-78
2021/12/03 05:21:39;;;;;;;0.10;0.10;;;1.90;99.90;;;;;;5046508;28;20111;-78
2021/12/03 05:24:05;;;;;;;0.10;0.10;;;1.90;99.90;;;;;;5052077;28;20021;-80
2021/12/03 05:26:31;;;;;;;0.10;0.10;;;1.90;99.90;;;;;;5063690;28;20025;-79
2021/12/03 05:28:56;;;;;;;0.63;0.63;;;2.70;99.90;;;;;;5056736;28;20039;-78
2021/12/03 05:31:22;;;;;;;0.10;0.10;;;2.00;99.90;;;;;;5050466;28;20082;-78
2021/12/03 05:33:48;;;;;;;0.10;0.10;;;2.00;99.90;;;;;;5051548;28;20511;-79
2021/12/03 05:36:13;;;;;;;0.10;0.10;;;2.00;99.90;;;;;;5050965;28;20490;-79
2021/12/03 05:38:40;;;;;;;0.10;0.10;;;2.00;99.90;;;;;;5041086;28;20120;-79
2021/12/03 05:41:06;;;;;;;0.10;0.10;;;2.00;99.90;;;;;;5031548;28;20021;-79
2021/12/03 05:43:31;;;;;;;0.10;0.10;;;2.00;99.90;;;;;;5031163;28;20028;-78
2021/12/03 05:45:57;;;;;;;0.10;0.10;;;1.90;99.90;;;;;;5042549;28;20029;-78
2021/12/03 05:48:23;;;;;;;0.10;0.10;;;1.90;99.90;;;;;;5041793;28;20021;-79
2021/12/03 05:50:50;;;;;;;0.10;0.10;;;1.90;99.90;;;;;;5056727;28;20020;-79
2021/12/03 05:53:16;;;;;;;0.10;0.10;;;1.90;99.90;;;;;;5051787;28;20052;-79
2021/12/03 05:55:42;;;;;;;2.55;2.40;;;2.00;99.90;;;;;;5051048;28;20466;-78
2021/12/03 05:58:08;;;;;;;0.10;0.10;;;2.00;99.90;;;;;;5050933;28;20025;-79
2021/12/03 06:00:40;;;;;;;0.30;0.30;;;2.10;99.90;;;;;;5035441;28;20025;-79
2021/12/03 06:03:06;;;;;;;0.10;0.10;;;2.00;99.90;;;;;;5031147;28;20064;-78
2021/12/03 06:05:33;;;;;;;0.10;0.10;;;2.00;99.90;;;;;;5036344;28;20024;-79
2021/12/03 06:07:59;;;;;;;0.10;0.10;;;2.00;99.90;;;;;;5056828;28;20489;-79
2021/12/03 06:10:26;;;;;;;0.85;0.85;;;2.00;99.90;;;;;;5050803;28;20053;-79
2021/12/03 06:12:52;;;;;;;0.10;0.10;;;1.90;99.90;;;;;;5051652;28;20024;-78
2021/12/03 06:15:19;;;;;;;0.10;0.10;;;2.10;99.90;;;;;;5046449;28;20026;-77
2021/12/03 06:17:45;;;;;;;0.10;0.10;;;1.90;99.90;;;;;;5040589;28;20029;-77
2021/12/03 06:20:11;;;;;;;0.10;0.10;;;2.00;99.90;;;;;;5048382;28;20048;-78
2021/12/03 06:22:37;;;;;;;0.10;0.10;;;2.00;99.90;;;;;;5049108;28;20051;-80
2021/12/03 06:25:05;;;;;;;0.10;0.10;;;2.00;99.90;;;;;;5046798;28;20033;-80
2021/12/03 06:27:31;;;;;;;0.40;0.40;;;2.00;99.90;;;;;;5051965;28;20039;-84
2021/12/03 06:29:58;;;;;;;0.10;0.10;;;2.00;99.90;;;;;;5051430;28;20028;-83
2021/12/03 06:32:24;;;;;;;0.10;0.10;;;2.10;99.90;;;;;;5049985;28;20052;-83
2021/12/03 06:34:51;;;;;;;0.10;0.10;;;1.90;99.90;;;;;;5051231;28;20029;-84
2021/12/03 06:37:16;;;;;;;0.10;0.10;;;1.70;99.90;;;;;;5052920;28;20161;-82
2021/12/03 06:39:42;;;;;;;0.10;0.10;;;1.70;99.90;;;;;;5053492;28;20450;-82
2021/12/03 06:42:08;;;;;;;0.00;0.00;;;1.70;99.90;;;;;;5053250;28;20059;-84
2021/12/03 06:44:34;;;;;;;0.10;0.10;;;1.70;99.90;;;;;;5052146;28;20032;-84
2021/12/03 06:47:02;;;;;;;0.10;0.10;;;1.60;99.90;;;;;;5052566;28;20124;-80
2021/12/03 06:49:29;;;;;;;0.10;0.10;;;1.60;99.90;;;;;;5048956;28;20025;-81
2021/12/03 06:52:03;;;;;;;0.15;0.15;;;1.40;99.90;;;;;;5050993;28;20027;-84
2021/12/03 06:54:31;;;;;;;0.10;0.10;;;1.40;99.90;;;;;;5049480;28;20109;-84
2021/12/03 06:56:57;;;;;;;0.10;0.10;;;1.30;99.90;;;;;;5052249;28;20024;-83
2021/12/03 06:59:24;;;;;;;0.10;0.10;;;1.30;99.90;;;;;;5049373;28;20060;-83
2021/12/03 07:01:51;;;;;;;0.10;0.10;;;1.30;99.90;;;;;;5050756;28;20052;-82
2021/12/03 07:04:18;;;;;;;0.10;0.10;;;1.20;99.90;;;;;;5051316;28;20722;-83
2021/12/03 07:06:44;;;;;;;0.10;0.10;;;1.20;99.90;;;;;;5051329;28;20028;-83
2021/12/03 07:12:13;;;;;;;0.10;0.10;;;1.10;99.90;;;;;;5034672;28;20400;-79
2021/12/03 07:14:39;;;;;;;0.10;0.10;;;1.20;99.90;;;;;;5064394;28;20090;-83
2021/12/03 07:17:06;;;;;;;0.10;0.10;;;1.20;99.90;;;;;;5053161;28;20025;-82
2021/12/03 07:19:32;;;;;;;0.10;0.10;;;1.20;99.90;;;;;;5038067;28;20032;-83
2021/12/03 07:21:58;;;;;;;0.10;0.10;;;1.10;99.90;;;;;;5054614;28;20025;-84
2021/12/03 07:24:24;;;;;;;0.10;0.10;;;1.10;99.90;;;;;;5047101;28;20013;-83
2021/12/03 07:26:49;;;;;;;0.10;0.10;;;1.10;99.90;;;;;;5052778;28;20036;-83
2021/12/03 07:29:15;;;;;;;0.10;0.10;;;1.00;99.90;;;;;;5047629;28;20096;-82
2021/12/03 07:31:41;;;;;;;0.10;0.10;;;1.00;99.90;;;;;;5056761;28;20037;-83
2021/12/03 07:34:06;;;;;;;0.10;0.10;;;1.00;99.90;;;;;;5035572;28;20029;-83
2021/12/03 07:36:32;;;;;;;0.10;0.10;;;1.00;99.90;;;;;;5042043;28;20032;-82
2021/12/03 07:38:57;;;;;;;0.10;0.10;;;1.00;99.90;;;;;;5045429;28;20028;-82
2021/12/03 07:41:23;;;;;;;0.10;0.10;;;1.00;99.90;;;;;;5036455;28;20013;-84
2021/12/03 07:43:49;;;;;;;0.10;0.10;;;1.00;99.90;;;;;;5047738;28;20025;-84
2021/12/03 07:46:15;;;;;;;0.10;0.10;;;1.00;99.90;;;;;;5039341;28;20060;-81
2021/12/03 07:48:46;;;;;;;0.10;0.10;;;1.10;99.90;;;;;;5056060;28;20111;-82
2021/12/03 07:51:17;;;;;;;0.30;0.30;;;1.10;99.90;;;;;;5034779;28;20025;-81
2021/12/03 07:53:43;;;;;;;0.20;0.20;;;1.20;99.90;;;;;;5054030;28;20056;-82
2021/12/03 07:56:09;;;;;;;0.10;0.10;;;1.20;99.90;;;;;;5058694;28;20021;-81
2021/12/03 07:58:35;;;;;;;0.10;0.10;;;1.20;99.90;;;;;;5064210;28;20115;-82
2021/12/03 08:01:01;;;;;;;0.10;0.10;;;2.10;99.90;;;;;;5053362;28;20036;-82
2021/12/03 08:03:27;;;;;;;0.10;0.10;;;1.30;99.90;;;;;;5054823;28;20028;-83
2021/12/03 08:05:53;;;;;;;0.10;0.10;;;1.30;99.90;;;;;;5036762;28;20063;-82
2021/12/03 08:08:26;;;;;;;0.10;0.10;;;1.40;99.90;;;;;;5055043;28;20069;-82
2021/12/03 08:10:52;;;;;;;0.10;0.10;;;1.40;99.90;;;;;;5053214;28;20049;-82
2021/12/03 08:13:18;;;;;;;0.10;0.10;;;1.40;99.90;;;;;;5054095;28;20445;-82
2021/12/03 08:15:44;;;;;;;0.10;0.10;;;1.40;99.90;;;;;;5036492;28;20143;-82
2021/12/03 08:18:10;;;;;;;0.10;0.10;;;1.40;99.90;;;;;;5045769;28;20362;-82
2021/12/03 08:20:35;;;;;;;0.10;0.10;;;1.40;99.90;;;;;;5054339;28;20462;-83
2021/12/03 08:23:02;;;;;;;0.10;0.10;;;1.50;99.90;;;;;;5053960;28;20090;-82
2021/12/03 08:25:29;;;;;;;0.10;0.10;;;1.60;99.90;;;;;;5054817;28;20028;-80
2021/12/03 08:27:55;;;;;;;0.10;0.10;;;1.60;99.90;;;;;;5053231;28;20089;-84
2021/12/03 08:30:21;;;;;;;0.10;0.10;;;1.60;99.90;;;;;;5053874;28;20025;-82
2021/12/03 08:32:48;;;;;;;0.10;0.10;;;1.70;99.90;;;;;;5054411;28;20464;-83
2021/12/03 08:35:14;;;;;;;0.10;0.10;;;1.70;99.90;;;;;;5054863;28;20025;-83
2021/12/03 08:37:44;;;;;;;0.10;0.10;;;1.70;99.90;;;;;;5054560;28;20052;-83
2021/12/03 08:40:11;;;;;;;0.10;0.10;;;1.80;99.90;;;;;;5045893;28;20025;-83
2021/12/03 08:42:37;;;;;;;0.10;0.10;;;1.80;99.90;;;;;;5054422;28;20021;-81
2021/12/03 08:45:04;;;;;;;0.10;0.10;;;1.80;99.90;;;;;;5053396;28;20025;-82
2021/12/03 08:47:33;;;;;;;0.10;0.10;;;1.80;99.90;;;;;;5040080;28;20055;-83
2021/12/03 08:50:00;;;;;;;0.10;0.10;;;1.80;99.90;;;;;;5034342;28;20056;-82
2021/12/03 08:54:55;;;;;;;0.10;0.10;;;1.90;99.90;;;;;;5034504;28;20466;-83
2021/12/03 08:57:30;;;;;;;0.10;0.10;;;2.00;99.90;;;;;;5034771;28;20588;-84
2021/12/03 08:59:58;;;;;;;0.10;0.10;;;2.10;99.90;;;;;;5027135;28;20029;-81
2021/12/03 09:02:24;;;;;;;0.10;0.10;;;2.10;99.90;;;;;;5034382;28;20026;-81
2021/12/03 09:04:50;;;;;;;0.10;0.10;;;2.10;99.90;;;;;;5033936;28;20045;-81
2021/12/03 09:07:16;;;;;;;0.10;0.10;;;2.20;99.90;;;;;;5033542;28;20087;-82
2021/12/03 09:09:42;;;;;;;0.10;0.10;;;2.40;99.90;;;;;;5032791;28;20033;-81
2021/12/03 09:12:08;;;;;;;0.10;0.10;;;2.70;99.90;;;;;;5052359;28;20790;-82
2021/12/03 09:14:43;;;;;;;0.10;0.10;;;3.20;99.90;;;;;;5052563;28;20037;-80
2021/12/03 09:20:35;;;;;;;0.10;0.10;;;3.50;99.90;;;;;;5052014;28;20429;-82
2021/12/03 09:22:37;;;;;;;0.10;0.10;;;3.40;99.90;;;;;;5048681;28;20588;-81
2021/12/03 09:25:05;;;;;;;0.57;0.57;;;3.40;99.90;;;;;;5064766;28;20025;-82
2021/12/03 09:27:31;;;;;;;0.10;0.10;;;3.30;99.90;;;;;;5064308;28;20074;-80
2021/12/03 09:29:57;;;;;;;0.10;0.10;;;3.00;99.90;;;;;;5039439;28;20029;-82
2021/12/03 09:32:28;;;;;;;0.10;0.10;;;3.80;99.90;;;;;;5043717;28;20033;-82
2021/12/03 09:34:54;;;;;;;0.10;0.10;;;2.80;99.90;;;;;;5051371;28;20040;-80
2021/12/03 09:37:21;;;;;;;0.10;0.10;;;2.80;99.90;;;;;;5043852;28;20358;-82
2021/12/03 09:39:46;;;;;;;0.10;0.10;;;2.80;99.90;;;;;;5051576;28;20029;-79
2021/12/03 09:42:14;;;;;;;0.38;0.38;;;2.80;99.90;;;;;;5052752;28;20044;-82
2021/12/03 09:44:43;;;;;;;0.10;0.10;;;2.90;99.90;;;;;;5050570;28;20027;-80
2021/12/03 09:47:09;;;;;;;0.10;0.10;;;3.00;99.90;;;;;;5040802;28;20025;-81
2021/12/03 09:49:37;;;;;;;0.10;0.10;;;3.00;99.90;;;;;;5034326;28;20494;-81
2021/12/03 09:52:26;;;;;;;0.10;0.10;;;3.10;99.90;;;;;;5033511;28;20557;-82
2021/12/03 09:55:06;;;;;;;0.10;0.10;;;3.10;99.90;;;;;;5049548;28;20478;-81
2021/12/03 09:57:37;;;;;;;0.10;0.10;;;3.10;99.90;;;;;;5051979;28;20079;-81
2021/12/03 10:00:18;;;;;;;0.10;0.10;;;3.00;99.90;;;;;;5053864;28;20040;-82
2021/12/03 10:14:32;;;;;;;0.10;0.10;;;3.50;99.90;;;;;;5010194;28;20096;-82
2021/12/03 10:20:06;;;;;;;0.10;0.10;;;3.50;99.90;;;;;;4989718;28;20104;-81
2021/12/03 10:31:36;;;;;;;0.10;0.10;;;3.20;99.90;;;;;;4978997;28;20442;-82
2021/12/03 10:34:00;;;;;;;0.10;0.10;;;3.50;99.90;;;;;;5009282;28;20045;-81
2021/12/03 10:39:26;;;;;;;0.10;0.10;;;3.70;99.90;;;;;;5005359;28;20041;-83
2021/12/03 10:42:11;;;;;;;0.10;0.10;;;3.80;99.90;;;;;;5042473;28;20113;-82
2021/12/03 10:45:04;;;;;;;0.10;0.10;;;3.70;99.90;;;;;;5047810;28;20025;-81
2021/12/03 10:50:28;;;;;;;0.10;0.10;;;3.80;99.90;;;;;;5032278;28;20041;-81
2021/12/03 10:56:15;;;;;;;0.10;0.10;;;3.80;99.90;;;;;;5036035;28;20032;-82
2021/12/03 12:02:04;;;;;;;0.10;0.10;;;4.30;99.90;;;;;;5046863;28;20037;-80
2021/12/03 12:38:44;;;;;;;0.10;0.10;;;4.20;99.90;;;;;;5033180;28;20053;-78
2021/12/03 14:10:25;;;;;;;0.10;0.10;;;4.60;99.90;;;;;;5049752;28;20122;-81
2021/12/03 14:40:50;;;;;;;3.03;2.13;;;4.10;99.90;;;;;;5048636;28;20021;-79
2021/12/03 14:48:33;;;;;;;0.10;0.10;;;4.00;99.90;;;;;;5046523;28;20033;-79
2021/12/03 14:51:21;;;;;;;0.10;0.10;;;4.00;99.90;;;;;;5029951;28;20022;-79
2021/12/03 14:54:50;;;;;;;;;;;;;;;;;;;;;
2021/12/03 15:06:24;;;;;;;0.10;0.10;;;3.80;99.90;;;;;;5034212;28;20091;-79
2021/12/03 15:08:54;;;;;;;0.10;0.10;;;3.80;99.90;;;;;;5046709;28;20032;-79
2021/12/03 15:35:09;;;;;;;0.10;0.10;;;3.30;99.90;;;;;;5030297;28;20455;-79
2021/12/03 16:04:22;;;;;;;0.10;0.10;;;3.00;99.90;;;;;;5035546;28;20079;-82
2021/12/03 16:23:19;;;;;;;0.10;0.10;;;3.10;99.90;;;;;;4997474;28;20113;-84
2021/12/03 16:47:25;;;;;;;0.10;0.10;;;3.10;99.90;;;;;;5053510;28;20079;-89
2021/12/03 16:52:42;;;;;;;0.10;0.10;;;3.10;99.90;;;;;;5054351;28;20028;-83
2021/12/03 16:55:09;;;;;;;0.10;0.10;;;3.20;99.90;;;;;;5052495;28;20025;-80
2021/12/03 16:57:36;;;;;;;0.10;0.10;;;3.10;99.90;;;;;;5049572;28;20033;-81
2021/12/03 17:02:50;;;;;;;0.10;0.10;;;3.20;99.90;;;;;;5053679;28;20489;-83
2021/12/03 17:05:28;;;;;;;0.10;0.10;;;3.20;99.90;;;;;;5052126;28;20134;-84
2021/12/03 18:00:39;;;;;;;0.10;0.10;;;3.30;99.90;;;;;;5044896;28;20020;-83
2021/12/03 18:03:14;;;;;;;0.10;0.10;;;2.70;99.90;;;;;;5042622;28;20526;-84
2021/12/03 18:43:56;;;;;;;0.10;0.10;;;3.00;99.90;;;;;;5048307;28;20032;-85
2021/12/03 18:56:54;;;;;;;0.95;0.95;;;3.20;99.90;;;;;;5048319;28;20083;-85
2021/12/03 18:59:21;;;;;;;0.10;0.10;;;3.30;99.90;;;;;;5040148;28;20513;-85
2021/12/03 19:01:47;;;;;;;0.10;0.10;;;3.30;99.90;;;;;;5034696;28;20128;-86
2021/12/03 19:04:18;;;;;;;0.10;0.10;;;3.30;99.90;;;;;;5054040;28;20017;-84
2021/12/03 19:09:25;;;;;;;0.10;0.10;;;3.30;99.90;;;;;;5053342;28;20344;-85
2021/12/03 19:11:58;;;;;;;0.40;0.40;;;3.40;99.90;;;;;;5052397;28;20029;-85
2021/12/03 19:14:25;;;;;;;0.10;0.10;;;3.40;99.90;;;;;;5051985;28;20088;-86
2021/12/03 19:16:51;;;;;;;0.10;0.10;;;3.30;99.90;;;;;;5054733;28;20040;-86
2021/12/03 19:19:17;;;;;;;0.10;0.10;;;3.40;99.90;;;;;;5053587;28;20083;-85
2021/12/03 19:21:45;;;;;;;0.10;0.10;;;3.40;99.90;;;;;;5051495;28;20029;-85
2021/12/03 19:24:13;;;;;;;0.10;0.10;;;3.40;99.90;;;;;;5053822;28;20016;-84
2021/12/03 19:26:43;;;;;;;0.10;0.10;;;3.40;99.90;;;;;;5051649;28;20494;-85
2021/12/03 19:29:17;;;;;;;0.10;0.10;;;3.40;99.90;;;;;;5031636;28;20029;-85
2021/12/03 19:31:46;;;;;;;0.10;0.10;;;3.40;99.90;;;;;;5033564;28;20029;-87
2021/12/03 19:34:12;;;;;;;0.10;0.10;;;3.40;99.90;;;;;;5052426;28;20052;-85
2021/12/03 19:36:44;;;;;;;0.10;0.10;;;3.40;99.90;;;;;;5052632;28;20490;-86
2021/12/03 19:39:12;;;;;;;0.10;0.10;;;3.40;99.90;;;;;;5048817;28;20037;-87
2021/12/03 19:41:53;;;;;;;0.10;0.10;;;3.50;99.90;;;;;;5042580;28;20028;-86
2021/12/03 19:44:30;;;;;;;0.10;0.10;;;4.20;99.90;;;;;;5062739;28;20137;-85
2021/12/03 19:46:56;;;;;;;0.10;0.10;;;3.50;99.90;;;;;;5060215;28;20080;-86
2021/12/03 19:51:57;;;;;;;0.10;0.10;;;3.50;99.90;;;;;;5049507;28;20037;-85
2021/12/03 19:54:23;;;;;;;0.20;0.20;;;3.50;99.90;;;;;;5053201;28;20021;-85
2021/12/03 19:56:50;;;;;;;0.32;0.32;;;3.50;99.90;;;;;;5051559;28;20492;-84
2021/12/03 19:59:18;;;;;;;0.10;0.10;;;3.50;99.90;;;;;;5033277;28;20047;-84
2021/12/03 20:01:44;;;;;;;0.20;0.20;;;3.50;99.90;;;;;;5030546;28;20032;-84
2021/12/03 20:04:13;;;;;;;0.10;0.10;;;3.50;99.90;;;;;;5051174;28;20102;-85
2021/12/03 20:06:43;;;;;;;0.10;0.10;;;3.50;99.90;;;;;;5051625;28;20027;-84
2021/12/03 20:09:13;;;;;;;0.20;0.20;;;3.50;99.90;;;;;;5031785;28;20029;-85
2021/12/03 20:11:42;;;;;;;0.40;0.40;;;3.60;99.90;;;;;;5033949;28;20024;-86
2021/12/03 20:14:11;;;;;;;0.10;0.10;;;3.60;99.90;;;;;;5050813;28;20116;-85
2021/12/03 20:16:46;;;;;;;0.10;0.10;;;3.70;99.90;;;;;;5034577;28;20078;-85
2021/12/03 20:19:20;;;;;;;0.10;0.10;;;3.60;99.90;;;;;;5032046;28;20028;-85
2021/12/03 20:22:00;;;;;;;0.55;0.55;;;3.80;99.90;;;;;;5049624;28;20021;-86
2021/12/03 20:27:00;;;;;;;0.10;0.10;;;3.60;99.90;;;;;;5054269;28;20461;-85
2021/12/03 20:29:38;;;;;;;0.10;0.10;;;3.70;99.90;;;;;;5052647;28;20025;-85
2021/12/03 20:37:19;;;;;;;0.10;0.10;;;3.70;99.90;;;;;;5053812;28;20021;-87
2021/12/03 20:39:46;;;;;;;0.10;0.10;;;3.70;99.90;;;;;;5037613;28;20013;-85
2021/12/03 20:42:26;;;;;;;0.10;0.10;;;3.70;99.90;;;;;;5054292;28;20078;-85
2021/12/03 20:47:59;;;;;;;0.20;0.20;;;3.70;99.90;;;;;;5055074;28;20108;-87
2021/12/03 20:58:49;;;;;;;0.10;0.10;;;3.80;99.90;;;;;;5056135;28;20052;-87
2021/12/03 21:08:50;;;;;;;0.10;0.10;;;3.80;99.90;;;;;;5050454;28;20107;-85
2021/12/03 21:13:43;;;;;;;0.10;0.10;;;3.80;99.90;;;;;;5055029;28;20508;-85
2021/12/03 21:21:32;;;;;;;0.10;0.10;;;3.90;99.90;;;;;;5051036;28;20032;-84
2021/12/03 21:24:00;;;;;;;0.10;0.10;;;3.90;99.90;;;;;;5053511;28;20013;-83
2021/12/03 21:26:26;;;;;;;0.10;0.10;;;3.90;99.90;;;;;;5051627;28;20017;-84
2021/12/03 21:31:24;;;;;;;0.30;0.30;;;3.80;99.90;;;;;;5055723;28;20024;-85